createdAt,value
2018-10-21T00:01:10.084Z,19.20
2018-10-21T00:03:12.266Z,19.77
2018-10-21T00:05:14.405Z,20.00
2018-10-21T00:07:16.571Z,18.97
2018-10-21T00:09:18.732Z,22.07
2018-10-21T00:11:20.890Z,19.80
2018-10-21T00:13:23.124Z,20.57
2018-10-21T00:15:25.454Z,18.87
2018-10-21T00:17:27.473Z,19.57
2018-10-21T00:19:29.614Z,25.47
2018-10-21T00:21:31.931Z,20.70
2018-10-21T00:23:34.106Z,18.83
2018-10-21T00:25:36.257Z,19.93
2018-10-21T00:27:39.332Z,18.50
2018-10-21T00:29:41.511Z,19.87
2018-10-21T00:31:43.661Z,18.80
2018-10-21T00:33:45.813Z,21.30
2018-10-21T00:35:47.985Z,18.37
2018-10-21T00:37:50.156Z,20.10
2018-10-21T00:39:52.364Z,17.93
2018-10-21T00:41:54.536Z,18.37
2018-10-21T00:43:56.702Z,15.30
2018-10-21T00:45:58.835Z,17.47
2018-10-21T00:48:01.263Z,20.10
2018-10-21T00:50:04.312Z,22.10
2018-10-21T00:52:06.470Z,18.53
2018-10-21T00:54:15.722Z,20.30
2018-10-21T00:56:17.883Z,20.63
2018-10-21T00:58:20.059Z,17.60
2018-10-21T01:00:22.238Z,18.50
2018-10-21T01:02:24.431Z,18.73
2018-10-21T01:04:26.600Z,21.57
2018-10-21T01:06:28.766Z,19.60
2018-10-21T01:08:30.970Z,17.73
2018-10-21T01:10:33.146Z,18.17
2018-10-21T01:12:35.301Z,24.13
2018-10-21T01:14:37.460Z,17.77
2018-10-21T01:16:39.649Z,17.00
2018-10-21T01:18:41.839Z,20.50
2018-10-21T01:20:44.097Z,19.33
2018-10-21T01:22:46.454Z,24.70
2018-10-21T01:24:48.630Z,19.20
2018-10-21T01:26:50.797Z,21.33
2018-10-21T01:28:52.959Z,21.27
2018-10-21T01:30:55.131Z,21.20
2018-10-21T01:32:57.307Z,20.10
2018-10-21T01:34:59.506Z,21.10
2018-10-21T01:37:01.866Z,21.33
2018-10-21T01:39:07.397Z,21.37
2018-10-21T01:41:09.494Z,22.53
2018-10-21T01:43:13.224Z,20.97
2018-10-21T01:45:15.406Z,23.13
2018-10-21T01:47:17.494Z,23.23
2018-10-21T01:49:19.628Z,23.07
2018-10-21T01:51:21.783Z,17.73
2018-10-21T01:53:24.548Z,21.20
2018-10-21T01:55:26.845Z,18.87
2018-10-21T01:57:28.971Z,20.63
2018-10-21T01:59:31.152Z,20.87
2018-10-21T02:01:33.316Z,19.17
2018-10-21T02:03:35.478Z,16.80
2018-10-21T02:05:38.391Z,19.33
2018-10-21T02:07:40.739Z,18.60
2018-10-21T02:09:42.911Z,15.63
2018-10-21T02:11:45.063Z,16.87
2018-10-21T02:13:47.239Z,19.07
2018-10-21T02:15:49.553Z,22.73
2018-10-21T02:17:51.746Z,15.43
2018-10-21T02:19:53.910Z,17.73
2018-10-21T02:21:56.050Z,16.60
2018-10-21T02:23:58.190Z,20.73
2018-10-21T02:26:00.374Z,20.50
2018-10-21T02:28:02.555Z,22.40
2018-10-21T02:30:07.333Z,21.20
2018-10-21T02:32:09.479Z,19.60
2018-10-21T02:34:11.635Z,21.63
2018-10-21T02:36:13.765Z,19.57
2018-10-21T02:38:16.114Z,24.10
2018-10-21T02:41:29.666Z,24.47
2018-10-21T02:43:31.817Z,21.10
2018-10-21T02:45:33.938Z,21.53
2018-10-21T02:47:36.114Z,32.20
2018-10-21T02:49:38.259Z,21.67
2018-10-21T02:51:40.414Z,23.20
2018-10-21T02:53:42.611Z,22.53
2018-10-21T02:55:44.766Z,25.57
2018-10-21T02:57:46.918Z,25.17
2018-10-21T02:59:49.454Z,23.13
2018-10-21T03:01:51.722Z,28.90
2018-10-21T03:03:53.870Z,25.43
2018-10-21T03:05:56.110Z,27.70
2018-10-21T03:07:58.265Z,24.70
2018-10-21T03:10:00.394Z,25.07
2018-10-21T03:12:02.567Z,34.50
2018-10-21T03:14:04.832Z,23.57
2018-10-21T03:16:06.986Z,30.00
2018-10-21T03:18:15.963Z,25.57
2018-10-21T03:20:18.079Z,29.83
2018-10-21T03:22:20.218Z,23.93
2018-10-21T03:24:22.378Z,29.03
2018-10-21T03:26:24.591Z,27.33
2018-10-21T03:28:26.746Z,26.40
2018-10-21T03:30:28.898Z,35.60
2018-10-21T03:32:31.340Z,29.87
2018-10-21T03:34:33.498Z,31.00
2018-10-21T03:36:35.662Z,28.90
2018-10-21T03:38:38.033Z,26.93
2018-10-21T03:40:40.355Z,27.43
2018-10-21T03:42:42.522Z,27.63
2018-10-21T03:44:44.718Z,29.83
2018-10-21T03:46:46.872Z,25.87
2018-10-21T03:48:49.035Z,27.93
2018-10-21T03:50:51.226Z,35.63
2018-10-21T03:52:53.630Z,28.10
2018-10-21T03:54:55.771Z,30.97
2018-10-21T03:56:57.898Z,35.50
2018-10-21T03:59:00.134Z,33.20
2018-10-21T04:01:02.302Z,35.17
2018-10-21T04:03:04.954Z,30.23
2018-10-21T04:05:07.560Z,32.13
2018-10-21T04:07:09.735Z,36.17
2018-10-21T04:09:11.858Z,31.90
2018-10-21T04:11:14.009Z,35.57
2018-10-21T04:13:16.185Z,35.20
2018-10-21T04:15:18.349Z,32.00
2018-10-21T04:17:20.486Z,35.70
2018-10-21T04:19:22.773Z,36.83
2018-10-21T04:21:24.997Z,36.37
2018-10-21T04:23:27.239Z,45.57
2018-10-21T04:25:30.718Z,41.03
2018-10-21T04:27:33.224Z,43.23
2018-10-21T04:29:35.455Z,33.30
2018-10-21T04:31:37.744Z,35.80
2018-10-21T04:33:40.584Z,39.60
2018-10-21T04:35:42.862Z,40.70
2018-10-21T04:38:32.283Z,39.77
2018-10-21T04:40:34.616Z,34.83
2018-10-21T04:42:36.986Z,39.20
2018-10-21T04:44:39.231Z,37.90
2018-10-21T04:46:41.604Z,39.07
2018-10-21T04:48:43.788Z,41.10
2018-10-21T04:50:46.156Z,38.97
2018-10-21T04:52:48.839Z,37.57
2018-10-21T04:54:51.403Z,36.70
2018-10-21T04:56:53.677Z,38.27
2018-10-21T04:58:55.966Z,37.37
2018-10-21T05:00:58.207Z,38.30
2018-10-21T05:03:00.432Z,38.27
2018-10-21T05:05:02.722Z,40.87
2018-10-21T05:07:04.946Z,35.40
2018-10-21T05:09:07.179Z,34.13
2018-10-21T05:11:09.436Z,37.47
2018-10-21T05:13:11.756Z,41.17
2018-10-21T05:15:14.144Z,32.17
2018-10-21T05:17:16.320Z,40.03
2018-10-21T05:19:18.591Z,39.67
2018-10-21T05:21:20.848Z,39.93
2018-10-21T05:23:23.137Z,39.63
2018-10-21T05:25:25.444Z,43.80
2018-10-21T05:27:27.671Z,39.43
2018-10-21T05:29:30.038Z,38.90
2018-10-21T05:31:32.376Z,60.47
2018-10-21T05:33:34.644Z,40.03
2018-10-21T05:35:36.924Z,48.83
2018-10-21T05:37:39.615Z,57.77
2018-10-21T05:39:41.932Z,46.70
2018-10-21T05:41:44.211Z,43.67
2018-10-21T05:43:46.615Z,44.70
2018-10-21T05:45:48.936Z,45.87
2018-10-21T05:47:51.163Z,42.37
2018-10-21T05:49:53.493Z,44.00
2018-10-21T05:51:55.835Z,46.13
2018-10-21T05:53:58.166Z,38.10
2018-10-21T05:56:00.455Z,37.97
2018-10-21T05:58:02.831Z,40.40
2018-10-21T06:00:08.188Z,34.47
2018-10-21T06:02:10.507Z,42.17
2018-10-21T06:04:13.874Z,35.63
2018-10-21T06:06:16.108Z,35.90
2018-10-21T06:08:18.494Z,38.33
2018-10-21T06:10:20.735Z,38.73
2018-10-21T06:12:22.963Z,37.70
2018-10-21T06:14:25.219Z,46.93
2018-10-21T06:16:28.816Z,34.47
2018-10-21T06:18:31.188Z,44.30
2018-10-21T06:20:36.123Z,45.73
2018-10-21T06:22:38.401Z,43.43
2018-10-21T06:24:40.697Z,43.90
2018-10-21T06:26:42.971Z,38.13
2018-10-21T06:28:45.350Z,37.00
2018-10-21T06:30:47.616Z,42.67
2018-10-21T06:32:49.972Z,37.47
2018-10-21T06:34:52.251Z,36.27
2018-10-21T06:36:54.604Z,40.30
2018-10-21T06:38:56.862Z,40.03
2018-10-21T06:40:59.320Z,47.20
2018-10-21T06:43:01.612Z,39.20
2018-10-21T06:45:04.378Z,45.33
2018-10-21T06:47:06.623Z,47.50
2018-10-21T06:49:08.994Z,42.03
2018-10-21T06:51:18.025Z,43.47
2018-10-21T06:53:20.284Z,43.20
2018-10-21T06:55:22.533Z,44.10
2018-10-21T06:57:25.041Z,43.33
2018-10-21T06:59:27.164Z,44.50
2018-10-21T07:01:29.885Z,51.80
2018-10-21T07:03:32.130Z,49.10
2018-10-21T07:06:18.180Z,44.07
2018-10-21T07:08:20.415Z,42.70
2018-10-21T07:10:22.668Z,44.63
2018-10-21T07:12:24.846Z,48.17
2018-10-21T07:17:00.848Z,48.17
2018-10-21T07:19:03.118Z,45.90
2018-10-21T07:21:05.368Z,48.90
2018-10-21T07:23:07.615Z,53.97
2018-10-21T07:25:10.068Z,50.30
2018-10-21T07:27:13.190Z,51.53
2018-10-21T07:29:15.486Z,53.90
2018-10-21T07:31:17.875Z,52.33
2018-10-21T07:33:20.225Z,52.80
2018-10-21T07:35:22.608Z,63.57
2018-10-21T07:37:24.892Z,49.90
2018-10-21T07:39:27.260Z,46.50
2018-10-21T07:41:29.589Z,50.73
2018-10-21T07:43:31.919Z,53.40
2018-10-21T07:45:34.219Z,55.30
2018-10-21T07:47:36.621Z,55.20
2018-10-21T07:49:39.035Z,56.30
2018-10-21T07:51:41.425Z,59.20
2018-10-21T07:53:43.768Z,58.67
2018-10-21T07:55:46.137Z,58.33
2018-10-21T07:57:48.371Z,58.07
2018-10-21T07:59:50.634Z,61.23
2018-10-21T08:01:53.443Z,56.70
2018-10-21T08:03:55.844Z,59.73
2018-10-21T08:06:28.901Z,55.03
2018-10-21T08:08:31.174Z,55.70
2018-10-21T08:10:33.785Z,55.27
2018-10-21T08:12:36.007Z,57.90
2018-10-21T08:14:38.314Z,61.00
2018-10-21T08:16:40.644Z,57.20
2018-10-21T08:18:42.925Z,61.03
2018-10-21T08:20:47.634Z,57.17
2018-10-21T08:22:50.443Z,61.50
2018-10-21T08:24:57.106Z,62.00
2018-10-21T08:27:01.566Z,61.70
2018-10-21T08:29:04.259Z,64.00
2018-10-21T08:31:06.467Z,59.33
2018-10-21T08:33:08.735Z,59.63
2018-10-21T08:35:11.000Z,61.03
2018-10-21T08:37:13.251Z,59.23
2018-10-21T08:39:15.471Z,70.83
2018-10-21T08:41:17.674Z,59.23
2018-10-21T08:43:20.760Z,63.83
2018-10-21T08:45:23.191Z,63.70
2018-10-21T08:47:26.118Z,62.10
2018-10-21T08:49:28.267Z,62.40
2018-10-21T08:51:30.483Z,60.80
2018-10-21T08:53:32.808Z,62.80
2018-10-21T08:55:35.015Z,58.60
2018-10-21T08:57:37.301Z,62.27
2018-10-21T08:59:39.531Z,59.97
2018-10-21T09:01:41.759Z,54.17
2018-10-21T09:03:44.004Z,66.93
2018-10-21T09:05:46.238Z,60.20
2018-10-21T09:07:48.568Z,61.07
2018-10-21T09:09:50.984Z,66.43
2018-10-21T09:11:53.208Z,65.30
2018-10-21T09:13:55.488Z,71.90
2018-10-21T09:15:57.747Z,62.87
2018-10-21T09:18:00.276Z,60.83
2018-10-21T09:20:02.562Z,62.37
2018-10-21T09:22:04.816Z,57.07
2018-10-21T09:24:07.203Z,59.73
2018-10-21T09:26:09.354Z,65.43
2018-10-21T09:28:11.897Z,56.40
2018-10-21T09:30:15.104Z,60.43
2018-10-21T09:32:17.336Z,53.03
2018-10-21T09:34:20.417Z,57.77
2018-10-21T09:36:22.899Z,54.53
2018-10-21T09:38:25.083Z,59.00
2018-10-21T09:40:27.301Z,58.23
2018-10-21T09:42:29.551Z,56.87
2018-10-21T09:44:31.775Z,59.30
2018-10-21T09:46:33.999Z,60.60
2018-10-21T09:48:36.207Z,60.07
2018-10-21T09:50:38.367Z,63.43
2018-10-21T09:52:40.567Z,64.90
2018-10-21T09:54:42.786Z,55.27
2018-10-21T09:56:45.099Z,62.47
2018-10-21T09:58:47.342Z,62.40
2018-10-21T10:00:55.242Z,54.97
2018-10-21T10:03:02.286Z,60.73
2018-10-21T10:05:05.040Z,52.70
2018-10-21T10:07:07.566Z,52.37
2018-10-21T10:09:11.339Z,50.73
2018-10-21T10:11:13.519Z,58.10
2018-10-21T10:13:16.034Z,55.70
2018-10-21T10:15:18.397Z,53.10
2018-10-21T10:17:20.561Z,54.47
2018-10-21T10:19:22.779Z,51.77
2018-10-21T10:21:24.985Z,50.33
2018-10-21T10:23:27.199Z,54.83
2018-10-21T10:25:29.431Z,51.33
2018-10-21T10:27:31.607Z,58.13
2018-10-21T10:29:33.813Z,54.80
2018-10-21T10:31:36.158Z,49.53
2018-10-21T10:33:38.433Z,49.27
2018-10-21T10:35:40.695Z,47.03
2018-10-21T10:37:43.290Z,45.33
2018-10-21T10:39:45.649Z,45.27
2018-10-21T10:41:47.802Z,45.60
2018-10-21T10:43:49.946Z,47.67
2018-10-21T10:45:52.290Z,49.33
2018-10-21T10:47:54.434Z,44.33
2018-10-21T10:49:56.676Z,44.17
2018-10-21T10:51:58.786Z,43.13
2018-10-21T10:54:01.311Z,43.73
2018-10-21T10:56:03.458Z,44.53
2018-10-21T10:58:05.989Z,42.70
2018-10-21T11:00:09.542Z,46.67
2018-10-21T11:02:11.442Z,41.73
2018-10-21T11:04:13.652Z,38.20
2018-10-21T11:06:15.900Z,45.43
2018-10-21T11:08:18.286Z,43.10
2018-10-21T11:10:21.099Z,38.83
2018-10-21T11:12:23.366Z,38.37
2018-10-21T11:14:25.552Z,36.70
2018-10-21T11:16:27.709Z,39.87
2018-10-21T11:18:29.956Z,40.00
2018-10-21T11:20:32.251Z,39.23
2018-10-21T11:22:34.420Z,38.83
2018-10-21T11:24:42.318Z,40.00
2018-10-21T11:26:44.497Z,37.00
2018-10-21T11:28:46.910Z,35.93
2018-10-21T11:30:49.110Z,32.77
2018-10-21T11:32:51.319Z,34.20
2018-10-21T11:34:53.792Z,36.03
2018-10-21T11:36:56.190Z,34.23
2018-10-21T11:38:58.417Z,34.60
2018-10-21T11:41:00.534Z,35.13
2018-10-21T11:43:02.884Z,32.80
2018-10-21T11:45:05.646Z,36.20
2018-10-21T11:47:08.032Z,38.27
2018-10-21T11:49:10.277Z,32.50
2018-10-21T11:51:12.451Z,33.60
2018-10-21T11:53:14.762Z,32.23
2018-10-21T11:55:17.336Z,36.40
2018-10-21T11:57:19.843Z,35.83
2018-10-21T11:59:22.118Z,39.50
2018-10-21T12:01:24.571Z,41.80
2018-10-21T12:03:27.150Z,38.13
2018-10-21T12:05:29.463Z,42.73
2018-10-21T12:07:31.772Z,47.37
2018-10-21T12:09:34.052Z,40.27
2018-10-21T12:11:36.519Z,40.60
2018-10-21T12:13:39.944Z,39.53
2018-10-21T12:15:42.210Z,43.33
2018-10-21T12:17:44.657Z,42.67
2018-10-21T12:19:47.073Z,39.50
2018-10-21T12:21:49.611Z,41.23
2018-10-21T12:23:51.807Z,37.30
2018-10-21T12:25:53.990Z,41.00
2018-10-21T12:27:56.157Z,37.20
2018-10-21T12:29:58.427Z,39.80
2018-10-21T12:32:00.597Z,36.53
2018-10-21T12:34:02.815Z,39.63
2018-10-21T12:36:05.466Z,35.67
2018-10-21T12:38:08.348Z,35.50
2018-10-21T12:40:10.567Z,37.20
2018-10-21T12:42:13.774Z,35.17
2018-10-21T12:44:15.966Z,33.50
2018-10-21T12:46:18.211Z,33.63
2018-10-21T12:48:20.510Z,35.90
2018-10-21T12:50:24.069Z,34.03
2018-10-21T12:52:26.230Z,29.93
2018-10-21T12:54:28.883Z,30.83
2018-10-21T12:56:30.982Z,29.13
2018-10-21T12:58:33.432Z,23.93
2018-10-21T13:00:35.872Z,26.73
2018-10-21T13:02:38.040Z,28.00
2018-10-21T13:04:40.372Z,27.77
2018-10-21T13:06:42.659Z,22.97
2018-10-21T13:08:44.878Z,23.13
2018-10-21T13:10:47.062Z,25.00
2018-10-21T13:12:49.518Z,25.20
2018-10-21T13:14:51.578Z,25.03
2018-10-21T13:16:54.579Z,23.20
2018-10-21T13:18:57.126Z,25.50
2018-10-21T13:21:00.826Z,19.63
2018-10-21T13:23:03.273Z,23.77
2018-10-21T13:25:05.707Z,23.80
2018-10-21T13:27:07.965Z,24.53
2018-10-21T13:29:10.207Z,23.60
2018-10-21T13:31:12.607Z,23.47
2018-10-21T13:33:14.749Z,19.53
2018-10-21T13:35:17.089Z,18.33
2018-10-21T13:37:19.330Z,21.10
2018-10-21T13:39:21.614Z,19.53
2018-10-21T13:41:23.767Z,20.73
2018-10-21T13:43:25.910Z,18.50
2018-10-21T13:45:28.068Z,21.10
2018-10-21T13:47:30.275Z,21.80
2018-10-21T13:49:32.406Z,21.73
2018-10-21T13:51:35.537Z,19.20
2018-10-21T13:53:37.702Z,23.20
2018-10-21T13:55:40.850Z,24.40
2018-10-21T13:57:43.042Z,21.53
2018-10-21T13:59:45.308Z,21.60
2018-10-21T14:01:47.468Z,30.53
2018-10-21T14:03:50.505Z,22.57
2018-10-21T14:05:52.741Z,19.63
2018-10-21T14:07:54.957Z,21.03
2018-10-21T14:09:57.225Z,19.13
2018-10-21T14:11:59.419Z,17.30
2018-10-21T14:14:01.888Z,20.63
2018-10-21T14:16:04.635Z,21.53
2018-10-21T14:18:06.814Z,20.90
2018-10-21T14:20:10.400Z,22.17
2018-10-21T14:22:13.037Z,19.73
2018-10-21T14:24:15.330Z,20.80
2018-10-21T14:26:17.648Z,22.20
2018-10-21T14:28:19.955Z,19.03
2018-10-21T14:30:22.303Z,20.93
2018-10-21T14:32:24.948Z,20.07
2018-10-21T14:34:27.266Z,19.50
2018-10-21T14:36:29.759Z,25.07
2018-10-21T14:38:32.421Z,21.53
2018-10-21T14:40:34.557Z,20.43
2018-10-21T14:42:36.887Z,20.00
2018-10-21T14:44:39.107Z,19.37
2018-10-21T14:46:41.310Z,20.13
2018-10-21T14:48:43.523Z,20.07
2018-10-21T14:50:45.798Z,17.03
2018-10-21T14:52:47.989Z,19.00
2018-10-21T14:54:50.441Z,18.47
2018-10-21T14:56:53.004Z,18.93
2018-10-21T14:58:55.215Z,18.40
2018-10-21T15:00:57.473Z,17.80
2018-10-21T15:02:59.803Z,19.73
2018-10-21T15:05:02.130Z,22.13
2018-10-21T15:07:04.804Z,18.97
2018-10-21T15:09:10.180Z,20.00
2018-10-21T15:11:12.460Z,18.50
2018-10-21T15:13:14.764Z,20.67
2018-10-21T15:15:16.999Z,21.00
2018-10-21T15:17:19.215Z,20.63
2018-10-21T15:20:25.515Z,21.80
2018-10-21T15:22:28.011Z,23.63
2018-10-21T15:24:30.365Z,22.50
2018-10-21T15:26:32.663Z,22.47
2018-10-21T15:28:34.954Z,21.13
2018-10-21T15:30:37.147Z,20.90
2018-10-21T15:32:40.034Z,18.93
2018-10-21T15:34:42.410Z,20.13
2018-10-21T15:36:44.573Z,20.33
2018-10-21T15:38:46.967Z,19.33
2018-10-21T15:40:49.342Z,20.83
2018-10-21T15:42:51.548Z,19.60
2018-10-21T15:44:53.966Z,19.53
2018-10-21T15:46:56.390Z,19.57
2018-10-21T15:48:58.705Z,20.27
2018-10-21T15:51:00.912Z,22.60
2018-10-21T15:53:03.150Z,23.23
2018-10-21T15:55:06.432Z,20.83
2018-10-21T15:57:08.651Z,20.90
2018-10-21T15:59:10.899Z,19.97
2018-10-21T16:01:13.167Z,23.03
2018-10-21T16:03:15.306Z,18.67
2018-10-21T16:05:17.490Z,21.80
2018-10-21T16:07:19.705Z,21.83
2018-10-21T16:09:21.914Z,17.97
2018-10-21T16:11:24.474Z,18.13
2018-10-21T16:13:26.643Z,19.60
2018-10-21T16:15:29.917Z,20.00
2018-10-21T16:17:32.068Z,19.87
2018-10-21T16:19:34.256Z,19.53
2018-10-21T16:21:36.531Z,20.53
2018-10-21T16:23:38.789Z,19.60
2018-10-21T16:25:41.208Z,23.83
2018-10-21T16:27:43.289Z,23.20
2018-10-21T16:29:45.517Z,21.87
2018-10-21T16:31:49.071Z,20.30
2018-10-21T16:34:09.630Z,21.10
2018-10-21T16:36:11.938Z,19.20
2018-10-21T16:38:14.226Z,21.37
2018-10-21T16:40:16.537Z,22.13
2018-10-21T16:42:18.763Z,21.63
2018-10-21T16:44:20.903Z,18.73
2018-10-21T16:46:23.146Z,21.77
2018-10-21T16:48:25.418Z,19.70
2018-10-21T16:50:27.574Z,24.27
2018-10-21T16:52:29.720Z,21.40
2018-10-21T16:54:31.996Z,19.13
2018-10-21T16:56:34.082Z,21.43
2018-10-21T16:58:36.241Z,23.77
2018-10-21T17:00:38.642Z,23.53
2018-10-21T17:02:40.940Z,22.30
2018-10-21T17:04:43.135Z,21.97
2018-10-21T17:06:46.252Z,18.60
2018-10-21T17:08:48.415Z,24.03
2018-10-21T17:10:50.663Z,22.80
2018-10-21T17:12:53.853Z,22.53
2018-10-21T17:14:56.173Z,20.07
2018-10-21T17:16:58.366Z,27.60
2018-10-21T17:19:00.554Z,22.53
2018-10-21T17:21:02.899Z,21.40
2018-10-21T17:23:05.432Z,23.13
2018-10-21T17:25:07.873Z,23.23
2018-10-21T17:27:10.099Z,22.53
2018-10-21T17:29:12.324Z,22.73
2018-10-21T17:31:14.534Z,23.20
2018-10-21T17:33:16.658Z,22.03
2018-10-21T17:35:18.856Z,22.87
2018-10-21T17:37:21.178Z,21.67
2018-10-21T17:39:23.382Z,23.40
2018-10-21T17:41:25.584Z,24.17
2018-10-21T17:43:27.844Z,20.60
2018-10-21T17:45:30.043Z,21.90
2018-10-21T17:47:32.278Z,24.87
2018-10-21T17:49:34.515Z,26.47
2018-10-21T17:51:36.811Z,23.00
2018-10-21T17:53:46.609Z,23.33
2018-10-21T17:55:49.411Z,29.07
2018-10-21T17:57:51.639Z,25.73
2018-10-21T17:59:55.122Z,24.43
2018-10-21T18:01:57.947Z,22.17
2018-10-21T18:04:01.783Z,24.97
2018-10-21T18:06:03.973Z,30.10
2018-10-21T18:08:06.677Z,30.40
2018-10-21T18:10:09.236Z,28.33
2018-10-21T18:12:11.409Z,24.00
2018-10-21T18:14:13.636Z,26.20
2018-10-21T18:16:16.268Z,27.73
2018-10-21T18:18:18.464Z,29.70
2018-10-21T18:20:20.730Z,24.40
2018-10-21T18:22:22.973Z,27.70
2018-10-21T18:24:25.201Z,26.43
2018-10-21T18:26:27.422Z,22.93
2018-10-21T18:28:29.971Z,25.93
2018-10-21T18:30:32.163Z,22.73
2018-10-21T18:32:34.372Z,24.67
2018-10-21T18:34:36.878Z,26.77
2018-10-21T18:36:39.114Z,24.17
2018-10-21T18:38:41.313Z,22.67
2018-10-21T18:40:43.624Z,25.07
2018-10-21T18:42:45.804Z,23.50
2018-10-21T18:44:48.025Z,23.20
2018-10-21T18:46:50.226Z,28.20
2018-10-21T18:48:52.415Z,25.53
2018-10-21T18:50:54.602Z,30.43
2018-10-21T18:52:56.762Z,26.00
2018-10-21T18:54:59.103Z,23.27
2018-10-21T18:57:01.383Z,31.63
2018-10-21T18:59:03.622Z,24.00
2018-10-21T19:01:05.887Z,23.17
2018-10-21T19:03:07.962Z,25.77
2018-10-21T19:05:10.930Z,24.20
2018-10-21T19:07:13.256Z,26.23
2018-10-21T19:09:15.344Z,25.67
2018-10-21T19:11:17.695Z,25.00
2018-10-21T19:13:19.824Z,21.20
2018-10-21T19:15:22.075Z,24.57
2018-10-21T19:17:24.302Z,22.60
2018-10-21T19:19:26.465Z,25.83
2018-10-21T19:21:28.632Z,27.23
2018-10-21T19:23:31.250Z,23.67
2018-10-21T19:25:33.445Z,26.73
2018-10-21T19:27:35.634Z,24.93
2018-10-21T19:29:38.122Z,31.37
2018-10-21T19:31:47.138Z,24.50
2018-10-21T19:33:49.383Z,27.03
2018-10-21T19:35:51.510Z,23.37
2018-10-21T19:37:53.674Z,33.20
2018-10-21T19:39:55.865Z,28.30
2018-10-21T19:41:58.014Z,27.30
2018-10-21T19:44:00.235Z,26.50
2018-10-21T19:46:02.456Z,27.97
2018-10-21T19:48:04.729Z,24.23
2018-10-21T19:50:08.039Z,26.43
2018-10-21T19:52:10.305Z,26.00
2018-10-21T19:54:12.393Z,27.40
2018-10-21T19:56:14.586Z,27.37
2018-10-21T19:58:16.894Z,25.83
2018-10-21T20:00:19.198Z,28.37
2018-10-21T20:02:21.647Z,28.33
2018-10-21T20:04:23.785Z,25.23
2018-10-21T20:06:25.926Z,25.53
2018-10-21T20:08:28.113Z,24.50
2018-10-21T20:10:30.250Z,24.80
2018-10-21T20:12:32.478Z,27.30
2018-10-21T20:14:34.843Z,24.47
2018-10-21T20:16:36.998Z,27.50
2018-10-21T20:18:39.136Z,26.37
2018-10-21T20:20:41.257Z,26.97
2018-10-21T20:22:43.396Z,29.00
2018-10-21T20:24:45.539Z,23.90
2018-10-21T20:26:47.700Z,23.50
2018-10-21T20:28:49.847Z,24.97
2018-10-21T20:30:52.278Z,23.80
2018-10-21T20:32:54.719Z,23.97
2018-10-21T20:34:56.726Z,24.97
2018-10-21T20:36:58.878Z,23.80
2018-10-21T20:39:01.006Z,22.30
2018-10-21T20:41:03.240Z,25.73
2018-10-21T20:43:06.196Z,22.97
2018-10-21T20:45:09.582Z,25.53
2018-10-21T20:47:11.902Z,23.30
2018-10-21T20:49:14.066Z,25.13
2018-10-21T20:51:16.388Z,22.70
2018-10-21T20:53:18.695Z,25.37
2018-10-21T20:55:20.891Z,25.93
2018-10-21T20:57:23.051Z,23.30
2018-10-21T20:59:25.262Z,24.77
2018-10-21T21:01:27.394Z,25.00
2018-10-21T21:03:29.525Z,26.00
2018-10-21T21:05:31.913Z,22.20
2018-10-21T21:07:34.049Z,22.40
2018-10-21T21:09:36.803Z,27.33
2018-10-21T21:11:39.050Z,24.87
2018-10-21T21:13:41.190Z,23.43
2018-10-21T21:15:43.331Z,24.03
2018-10-21T21:17:45.453Z,26.10
2018-10-21T21:19:47.933Z,25.70
2018-10-21T21:21:50.491Z,26.30
2018-10-21T21:23:52.748Z,23.20
2018-10-21T21:25:55.091Z,22.60
2018-10-21T21:27:57.248Z,21.87
2018-10-21T21:29:59.430Z,24.57
2018-10-21T21:32:01.523Z,26.90
2018-10-21T21:34:03.914Z,30.90
2018-10-21T21:36:06.113Z,24.53
2018-10-21T21:38:08.439Z,21.87
2018-10-21T21:40:10.588Z,25.57
2018-10-21T21:42:12.763Z,23.77
2018-10-21T21:44:15.026Z,25.13
2018-10-21T21:46:17.221Z,25.10
2018-10-21T21:48:19.354Z,26.23
2018-10-21T21:50:22.234Z,27.00
2018-10-21T21:52:24.346Z,27.23
2018-10-21T21:54:26.447Z,44.83
2018-10-21T21:56:28.913Z,27.13
2018-10-21T21:58:31.042Z,27.67
2018-10-21T22:00:33.170Z,29.07
2018-10-21T22:02:35.306Z,29.57
2018-10-21T22:04:37.449Z,29.50
2018-10-21T22:06:39.582Z,32.27
2018-10-21T22:08:41.722Z,31.10
2018-10-21T22:10:43.842Z,32.70
2018-10-21T22:12:45.977Z,26.83
2018-10-21T22:14:48.116Z,27.97
2018-10-21T22:16:50.276Z,29.20
2018-10-21T22:18:52.401Z,30.83
2018-10-21T22:20:54.532Z,29.73
2018-10-21T22:22:56.669Z,30.93
2018-10-21T22:24:58.807Z,30.30
2018-10-21T22:27:00.924Z,31.73
2018-10-21T22:29:03.693Z,29.47
2018-10-21T22:31:05.803Z,32.87
2018-10-21T22:33:07.949Z,34.33
2018-10-21T22:35:10.409Z,31.10
2018-10-21T22:37:12.573Z,34.40
2018-10-21T22:39:14.698Z,28.57
2018-10-21T22:41:17.170Z,32.07
2018-10-21T22:43:19.289Z,32.00
2018-10-21T22:45:21.436Z,35.90
2018-10-21T22:47:23.590Z,28.87
2018-10-21T22:49:25.723Z,33.03
2018-10-21T22:51:27.869Z,28.67
2018-10-21T22:53:30.026Z,27.60
2018-10-21T22:55:32.167Z,29.57
2018-10-21T22:57:34.328Z,27.87
2018-10-21T22:59:36.450Z,32.10
2018-10-21T23:01:38.592Z,32.83
2018-10-21T23:03:40.734Z,30.20
2018-10-21T23:05:42.926Z,29.97
2018-10-21T23:07:45.082Z,31.33
2018-10-21T23:11:56.199Z,27.27
2018-10-21T23:13:58.322Z,27.23
2018-10-21T23:16:00.442Z,30.70
2018-10-21T23:18:02.633Z,29.63
2018-10-21T23:20:05.760Z,25.10
2018-10-21T23:22:07.945Z,30.17
2018-10-21T23:24:10.330Z,32.57
2018-10-21T23:26:12.448Z,30.93
2018-10-21T23:28:14.641Z,31.20
2018-10-21T23:30:16.954Z,27.60
2018-10-21T23:32:19.063Z,30.07
2018-10-21T23:34:21.204Z,31.30
2018-10-21T23:36:23.635Z,26.27
2018-10-21T23:38:25.918Z,29.60
2018-10-21T23:40:28.073Z,28.97
2018-10-21T23:42:30.362Z,30.07
2018-10-21T23:44:32.517Z,29.73
2018-10-21T23:46:34.687Z,28.83
2018-10-21T23:48:36.822Z,28.30
2018-10-21T23:50:39.077Z,32.73
2018-10-21T23:52:41.427Z,37.60
2018-10-21T23:54:43.557Z,50.83
2018-10-21T23:56:45.694Z,45.90
2018-10-21T23:58:47.964Z,47.80
